createdAt,value
2018-08-23T00:01:56.842Z,23.41
2018-08-23T00:04:26.460Z,23.56
2018-08-23T00:07:07.240Z,23.27
2018-08-23T00:09:49.557Z,23.22
2018-08-23T00:12:23.322Z,22.76
2018-08-23T00:14:52.958Z,22.70
2018-08-23T00:17:22.592Z,22.68
2018-08-23T00:19:52.221Z,22.97
2018-08-23T00:22:27.232Z,23.14
2018-08-23T00:25:13.514Z,22.87
2018-08-23T00:27:46.655Z,23.35
2018-08-23T00:30:24.404Z,23.15
2018-08-23T00:32:54.254Z,22.44
2018-08-23T00:35:23.887Z,22.73
2018-08-23T00:37:53.547Z,22.10
2018-08-23T00:40:23.218Z,22.51
2018-08-23T00:42:57.918Z,22.29
2018-08-23T00:45:35.731Z,22.35
2018-08-23T00:48:05.618Z,21.85
2018-08-23T00:51:05.846Z,22.31
2018-08-23T00:53:36.781Z,22.64
2018-08-23T00:56:20.482Z,22.87
2018-08-23T00:58:55.313Z,22.66
2018-08-23T01:01:24.983Z,22.59
2018-08-23T01:03:55.118Z,22.85
2018-08-23T01:06:34.692Z,22.66
2018-08-23T01:09:04.802Z,22.36
2018-08-23T01:11:58.286Z,22.79
2018-08-23T01:14:27.962Z,22.71
2018-08-23T01:17:14.814Z,22.33
2018-08-23T01:19:49.801Z,21.98
2018-08-23T01:25:24.049Z,21.20
2018-08-23T01:30:39.702Z,21.46
2018-08-23T01:33:13.052Z,21.82
2018-08-23T01:35:44.018Z,21.65
2018-08-23T01:38:28.906Z,21.97
2018-08-23T01:41:03.646Z,22.29
2018-08-23T01:43:33.326Z,22.37
2018-08-23T01:46:38.938Z,22.13
2018-08-23T01:49:08.622Z,22.45
2018-08-23T01:51:38.317Z,22.62
2018-08-23T01:54:07.982Z,22.61
2018-08-23T01:56:37.633Z,21.55
2018-08-23T01:59:07.323Z,21.58
2018-08-23T02:01:37.036Z,21.36
2018-08-23T02:04:24.990Z,21.48
2018-08-23T02:10:17.162Z,21.34
2018-08-23T02:13:13.350Z,21.15
2018-08-23T02:15:48.143Z,20.95
2018-08-23T02:18:17.755Z,21.28
2018-08-23T02:23:57.236Z,20.79
2018-08-23T02:30:03.396Z,20.95
2018-08-23T02:32:33.213Z,21.16
2018-08-23T02:35:05.983Z,20.76
2018-08-23T02:37:35.610Z,21.11
2018-08-23T02:40:05.325Z,21.05
2018-08-23T02:42:53.765Z,21.45
2018-08-23T02:45:23.624Z,21.45
2018-08-23T02:47:53.287Z,20.78
2018-08-23T02:50:26.365Z,20.46
2018-08-23T02:53:00.064Z,20.38
2018-08-23T02:55:29.809Z,20.73
2018-08-23T02:58:01.432Z,20.71
2018-08-23T03:00:36.353Z,20.38
2018-08-23T03:03:29.694Z,20.43
2018-08-23T03:05:59.343Z,20.45
2018-08-23T03:08:42.890Z,20.68
2018-08-23T03:11:29.470Z,20.83
2018-08-23T03:13:59.769Z,21.08
2018-08-23T03:16:46.128Z,21.36
2018-08-23T03:19:35.504Z,21.51
2018-08-23T03:22:05.744Z,21.29
2018-08-23T03:24:36.015Z,21.29
2018-08-23T03:27:06.225Z,21.09
2018-08-23T03:30:06.753Z,21.24
2018-08-23T03:32:36.925Z,20.95
2018-08-23T03:35:07.893Z,20.34
2018-08-23T03:37:38.002Z,20.09
2018-08-23T03:40:10.274Z,20.42
2018-08-23T03:42:40.486Z,20.63
2018-08-23T03:45:16.245Z,20.34
2018-08-23T03:47:53.503Z,20.10
2018-08-23T03:50:23.628Z,19.77
2018-08-23T03:53:06.965Z,19.78
2018-08-23T03:55:37.262Z,19.61
2018-08-23T03:58:07.330Z,19.91
2018-08-23T04:01:04.575Z,20.15
2018-08-23T04:03:39.891Z,20.55
2018-08-23T04:07:21.751Z,20.77
2018-08-23T04:09:51.775Z,20.52
2018-08-23T04:12:40.302Z,20.19
2018-08-23T04:15:35.509Z,19.94
2018-08-23T04:18:17.242Z,19.98
2018-08-23T04:20:55.268Z,20.32
2018-08-23T04:23:25.522Z,20.16
2018-08-23T04:25:55.672Z,19.92
2018-08-23T04:28:26.148Z,20.25
2018-08-23T04:30:56.241Z,20.42
2018-08-23T04:33:25.911Z,20.15
2018-08-23T04:35:56.117Z,20.00
2018-08-23T04:38:26.365Z,20.15
2018-08-23T04:41:02.232Z,20.22
2018-08-23T04:43:31.908Z,19.84
2018-08-23T04:46:06.090Z,19.34
2018-08-23T04:48:36.336Z,19.81
2018-08-23T04:51:06.406Z,20.23
2018-08-23T04:53:36.388Z,20.24
2018-08-23T04:56:06.226Z,19.98
2018-08-23T04:58:36.478Z,19.83
2018-08-23T05:01:06.138Z,19.52
2018-08-23T05:03:35.816Z,19.69
2018-08-23T05:06:08.778Z,19.96
2018-08-23T05:08:38.418Z,20.12
2018-08-23T05:11:08.067Z,19.96
2018-08-23T05:13:37.751Z,20.01
2018-08-23T05:16:07.519Z,20.30
2018-08-23T05:18:37.181Z,20.34
2018-08-23T05:21:07.039Z,20.17
2018-08-23T05:23:36.797Z,19.94
2018-08-23T05:26:11.623Z,19.92
2018-08-23T05:28:43.526Z,20.06
2018-08-23T05:34:18.649Z,19.85
2018-08-23T05:36:48.292Z,19.95
2018-08-23T05:39:20.239Z,20.14
2018-08-23T05:41:52.129Z,20.16
2018-08-23T05:44:58.709Z,20.18
2018-08-23T05:47:32.052Z,20.33
2018-08-23T05:50:01.730Z,20.42
2018-08-23T05:52:31.387Z,20.44
2018-08-23T05:55:01.029Z,20.15
2018-08-23T05:57:31.667Z,19.67
2018-08-23T06:00:11.674Z,19.89
2018-08-23T06:02:41.341Z,20.18
2018-08-23T06:05:37.653Z,20.35
2018-08-23T06:08:07.920Z,20.42
2018-08-23T06:10:37.597Z,20.48
2018-08-23T06:13:08.142Z,20.52
2018-08-23T06:15:42.886Z,20.54
2018-08-23T06:18:12.514Z,20.56
2018-08-23T06:23:39.427Z,20.58
2018-08-23T06:26:09.361Z,20.62
2018-08-23T06:31:59.042Z,20.69
2018-08-23T06:34:36.271Z,20.72
2018-08-23T06:37:05.998Z,20.72
2018-08-23T06:39:35.664Z,20.75
2018-08-23T06:42:05.543Z,20.77
2018-08-23T06:44:42.401Z,20.78
2018-08-23T06:47:28.503Z,20.76
2018-08-23T06:49:59.236Z,20.81
2018-08-23T06:52:38.705Z,20.86
2018-08-23T06:55:13.783Z,20.83
2018-08-23T06:57:46.502Z,20.88
2018-08-23T07:00:21.441Z,20.88
2018-08-23T07:03:05.052Z,20.96
2018-08-23T07:05:55.557Z,21.01
2018-08-23T07:08:25.918Z,20.99
2018-08-23T07:16:34.705Z,21.05
2018-08-23T07:20:09.699Z,21.17
2018-08-23T07:23:17.660Z,21.26
2018-08-23T07:25:47.263Z,21.34
2018-08-23T07:28:16.876Z,21.39
2018-08-23T07:33:58.589Z,21.54
2018-08-23T07:36:30.049Z,21.62
2018-08-23T07:38:59.694Z,21.62
2018-08-23T07:41:57.740Z,21.53
2018-08-23T07:44:56.506Z,21.58
2018-08-23T07:47:55.491Z,21.65
2018-08-23T07:50:25.266Z,21.75
2018-08-23T08:06:48.724Z,21.88
2018-08-23T08:12:23.166Z,21.98
2018-08-23T08:14:53.843Z,22.16
2018-08-23T08:17:29.368Z,22.21
2018-08-23T08:19:59.250Z,22.40
2018-08-23T08:22:28.902Z,22.51
2018-08-23T08:25:21.606Z,22.66
2018-08-23T08:27:51.329Z,22.80
2018-08-23T08:30:57.270Z,22.86
2018-08-23T08:33:31.813Z,22.98
2018-08-23T08:36:02.934Z,22.54
2018-08-23T08:38:33.089Z,22.78
2018-08-23T08:41:02.748Z,22.91
2018-08-23T08:43:32.411Z,23.09
2018-08-23T08:46:02.094Z,23.55
2018-08-23T08:48:36.029Z,23.54
2018-08-23T08:51:21.217Z,23.61
2018-08-23T08:53:51.287Z,23.75
2018-08-23T08:57:19.037Z,23.82
2018-08-23T08:59:48.654Z,23.75
2018-08-23T09:02:18.447Z,23.84
2018-08-23T09:04:48.114Z,23.94
2018-08-23T09:07:28.906Z,24.18
2018-08-23T09:13:01.352Z,24.45
2018-08-23T09:15:30.979Z,24.33
2018-08-23T09:18:00.627Z,24.54
2018-08-23T09:20:30.327Z,24.55
2018-08-23T09:23:28.700Z,24.59
2018-08-23T09:25:58.851Z,24.77
2018-08-23T09:28:28.582Z,24.87
2018-08-23T09:30:58.269Z,25.06
2018-08-23T09:33:28.986Z,25.29
2018-08-23T09:38:59.721Z,25.28
2018-08-23T09:41:34.885Z,25.46
2018-08-23T09:44:27.389Z,25.42
2018-08-23T09:47:01.214Z,25.54
2018-08-23T09:52:32.529Z,25.67
2018-08-23T09:55:02.214Z,25.87
2018-08-23T09:57:31.881Z,25.84
2018-08-23T10:00:01.550Z,25.71
2018-08-23T10:02:42.031Z,25.92
2018-08-23T10:05:16.704Z,26.18
2018-08-23T10:07:58.167Z,26.06
2018-08-23T10:10:32.858Z,26.31
2018-08-23T10:13:13.656Z,26.45
2018-08-23T10:15:45.401Z,26.62
2018-08-23T10:21:59.730Z,26.53
2018-08-23T10:24:54.870Z,26.24
2018-08-23T10:27:50.657Z,26.52
2018-08-23T10:30:20.714Z,26.63
2018-08-23T10:32:50.999Z,26.49
2018-08-23T10:35:36.179Z,26.42
2018-08-23T10:38:07.328Z,26.25
2018-08-23T10:40:37.596Z,26.57
2018-08-23T10:43:07.848Z,26.64
2018-08-23T10:45:38.086Z,26.73
2018-08-23T10:48:13.460Z,26.85
2018-08-23T10:50:44.014Z,26.66
2018-08-23T10:53:14.561Z,26.72
2018-08-23T10:55:45.310Z,26.89
2018-08-23T10:58:15.574Z,26.94
2018-08-23T11:00:45.257Z,26.99
2018-08-23T11:03:14.915Z,26.97
2018-08-23T11:06:08.662Z,27.11
2018-08-23T11:14:40.617Z,27.28
2018-08-23T11:17:15.545Z,26.71
2018-08-23T11:23:05.073Z,27.77
2018-08-23T11:25:35.242Z,27.52
2018-08-23T11:28:09.950Z,27.81
2018-08-23T11:33:45.574Z,27.92
2018-08-23T11:36:33.768Z,27.92
2018-08-23T11:47:07.688Z,28.34
2018-08-23T11:49:37.407Z,27.74
2018-08-23T11:52:13.285Z,27.81
2018-08-23T11:54:42.898Z,27.90
2018-08-23T11:57:33.470Z,27.81
2018-08-23T12:00:03.241Z,27.42
2018-08-23T12:02:42.384Z,27.62
2018-08-23T12:05:13.813Z,28.26
2018-08-23T12:08:02.887Z,28.06
2018-08-23T12:24:21.052Z,27.84
2018-08-23T12:26:50.817Z,28.00
2018-08-23T12:29:20.484Z,28.11
2018-08-23T12:31:50.263Z,28.07
2018-08-23T12:34:34.648Z,28.18
2018-08-23T12:37:09.810Z,28.36
2018-08-23T12:39:44.539Z,28.29
2018-08-23T12:42:19.281Z,27.96
2018-08-23T12:45:03.420Z,28.20
2018-08-23T12:47:33.054Z,28.17
2018-08-23T12:50:06.361Z,27.94
2018-08-23T12:52:35.943Z,28.18
2018-08-23T12:55:05.643Z,28.39
2018-08-23T12:57:35.322Z,28.75
2018-08-23T13:00:07.831Z,28.48
2018-08-23T13:02:40.951Z,28.72
2018-08-23T13:05:10.948Z,28.47
2018-08-23T13:07:40.521Z,28.69
2018-08-23T13:10:10.234Z,28.75
2018-08-23T13:12:47.030Z,28.78
2018-08-23T13:15:16.876Z,28.82
2018-08-23T13:17:46.510Z,28.89
2018-08-23T13:20:16.154Z,28.72
2018-08-23T13:22:45.822Z,27.99
2018-08-23T13:25:16.065Z,28.40
2018-08-23T13:27:45.754Z,28.54
2018-08-23T13:30:19.794Z,28.05
2018-08-23T13:32:49.540Z,28.52
2018-08-23T13:35:19.216Z,28.56
2018-08-23T13:37:59.123Z,28.75
2018-08-23T13:40:29.326Z,28.48
2018-08-23T13:42:59.774Z,28.49
2018-08-23T13:45:31.182Z,28.45
2018-08-23T13:48:02.702Z,28.43
2018-08-23T13:50:32.425Z,28.33
2018-08-23T13:53:02.066Z,27.98
2018-08-23T13:55:34.013Z,28.41
2018-08-23T13:58:05.390Z,28.76
2018-08-23T14:00:41.146Z,28.83
2018-08-23T14:03:23.005Z,29.16
2018-08-23T14:05:52.650Z,28.70
2018-08-23T14:08:22.256Z,28.55
2018-08-23T14:10:56.025Z,28.39
2018-08-23T14:13:36.069Z,28.55
2018-08-23T14:16:17.303Z,28.43
2018-08-23T14:18:48.977Z,28.54
2018-08-23T14:21:20.911Z,28.42
2018-08-23T14:23:50.841Z,28.86
2018-08-23T14:26:20.524Z,28.76
2018-08-23T14:28:50.178Z,28.32
2018-08-23T14:31:21.306Z,28.65
2018-08-23T14:33:50.918Z,28.80
2018-08-23T14:36:34.773Z,28.82
2018-08-23T14:39:11.923Z,28.47
2018-08-23T14:41:41.663Z,28.91
2018-08-23T14:44:11.408Z,29.01
2018-08-23T14:46:46.060Z,29.00
2018-08-23T14:49:38.341Z,28.68
2018-08-23T14:52:19.383Z,28.19
2018-08-23T14:54:49.266Z,28.58
2018-08-23T15:00:14.623Z,28.76
2018-08-23T15:02:44.294Z,28.66
2018-08-23T15:05:13.922Z,28.90
2018-08-23T15:08:00.160Z,28.94
2018-08-23T15:10:36.861Z,28.82
2018-08-23T15:13:06.735Z,28.70
2018-08-23T15:15:41.364Z,28.84
2018-08-23T15:18:30.295Z,28.86
2018-08-23T15:21:01.529Z,28.83
2018-08-23T15:23:32.202Z,28.95
2018-08-23T15:26:29.178Z,28.85
2018-08-23T15:29:01.994Z,29.14
2018-08-23T15:31:32.073Z,28.37
2018-08-23T15:34:12.952Z,28.58
2018-08-23T15:36:42.777Z,28.89
2018-08-23T15:39:14.402Z,28.84
2018-08-23T15:41:44.119Z,28.85
2018-08-23T15:44:14.679Z,29.00
2018-08-23T15:47:43.728Z,28.80
2018-08-23T15:50:13.461Z,28.61
2018-08-23T15:52:43.083Z,28.71
2018-08-23T15:55:12.911Z,28.76
2018-08-23T15:57:42.379Z,28.28
2018-08-23T16:00:12.055Z,28.92
2018-08-23T16:02:41.669Z,28.44
2018-08-23T16:05:11.334Z,28.65
2018-08-23T16:07:40.974Z,28.90
2018-08-23T16:10:17.441Z,28.90
2018-08-23T16:12:50.627Z,28.24
2018-08-23T16:15:21.869Z,28.78
2018-08-23T16:17:57.985Z,28.47
2018-08-23T16:20:35.627Z,28.40
2018-08-23T16:23:05.336Z,28.24
2018-08-23T16:25:40.194Z,28.01
2018-08-23T16:28:10.110Z,27.81
2018-08-23T16:30:46.321Z,27.92
2018-08-23T16:33:15.950Z,27.67
2018-08-23T16:35:46.494Z,27.67
2018-08-23T16:38:16.123Z,27.33
2018-08-23T16:41:17.722Z,27.39
2018-08-23T16:43:47.367Z,27.97
2018-08-23T16:46:17.163Z,27.72
2018-08-23T16:48:46.898Z,27.90
2018-08-23T16:51:16.487Z,27.89
2018-08-23T16:53:46.149Z,27.77
2018-08-23T16:56:15.834Z,27.50
2018-08-23T16:58:45.474Z,27.56
2018-08-23T17:01:15.110Z,27.54
2018-08-23T17:03:48.756Z,27.62
2018-08-23T17:06:18.562Z,27.77
2018-08-23T17:08:59.160Z,27.02
2018-08-23T17:11:28.990Z,26.70
2018-08-23T17:13:58.819Z,26.73
2018-08-23T17:16:33.728Z,27.21
2018-08-23T17:19:06.766Z,27.38
2018-08-23T17:21:36.490Z,27.33
2018-08-23T17:24:06.122Z,26.80
2018-08-23T17:26:35.753Z,26.94
2018-08-23T17:29:05.579Z,27.40
2018-08-23T17:31:35.333Z,26.94
2018-08-23T17:34:04.977Z,26.92
2018-08-23T17:36:36.135Z,27.10
2018-08-23T17:39:09.792Z,27.04
2018-08-23T17:41:39.478Z,26.92
2018-08-23T17:44:09.186Z,26.43
2018-08-23T17:46:38.861Z,26.31
2018-08-23T17:49:09.499Z,25.72
2018-08-23T17:51:44.827Z,26.31
2018-08-23T17:54:14.503Z,26.77
2018-08-23T17:56:44.175Z,26.64
2018-08-23T17:59:13.798Z,26.33
2018-08-23T18:01:43.419Z,26.63
2018-08-23T18:04:13.101Z,26.03
2018-08-23T18:06:42.884Z,25.68
2018-08-23T18:09:23.995Z,25.61
2018-08-23T18:11:53.688Z,25.70
2018-08-23T18:14:23.290Z,25.68
2018-08-23T18:16:58.911Z,25.22
2018-08-23T18:19:28.874Z,25.05
2018-08-23T18:21:58.973Z,25.75
2018-08-23T18:24:28.581Z,25.62
2018-08-23T18:26:58.225Z,25.21
2018-08-23T18:29:27.837Z,25.35
2018-08-23T18:31:57.505Z,25.36
2018-08-23T18:34:27.108Z,25.24
2018-08-23T18:36:56.737Z,25.55
2018-08-23T18:39:26.345Z,25.86
2018-08-23T18:41:55.962Z,25.44
2018-08-23T18:44:25.593Z,24.87
2018-08-23T18:46:56.471Z,25.32
2018-08-23T18:49:27.051Z,24.89
2018-08-23T18:51:56.738Z,24.71
2018-08-23T18:54:26.479Z,24.39
2018-08-23T18:57:02.675Z,24.89
2018-08-23T18:59:33.423Z,25.41
2018-08-23T19:02:04.574Z,25.35
2018-08-23T19:04:34.345Z,25.40
2018-08-23T19:07:04.069Z,25.15
2018-08-23T19:09:38.043Z,25.09
2018-08-23T19:12:07.900Z,25.49
2018-08-23T19:14:37.529Z,25.14
2018-08-23T19:17:12.481Z,25.11
2018-08-23T19:19:45.042Z,25.45
2018-08-23T19:22:14.841Z,25.37
2018-08-23T19:24:44.931Z,25.10
2018-08-23T19:27:19.274Z,25.23
2018-08-23T19:29:49.294Z,24.93
2018-08-23T19:32:26.854Z,25.20
2018-08-23T19:34:56.442Z,25.25
2018-08-23T19:37:26.080Z,25.39
2018-08-23T19:39:55.710Z,25.46
2018-08-23T19:42:25.612Z,25.49
2018-08-23T19:44:58.121Z,25.57
2018-08-23T19:47:32.916Z,25.58
2018-08-23T19:50:03.770Z,25.54
2018-08-23T19:52:33.422Z,25.42
2018-08-23T19:55:03.038Z,25.35
2018-08-23T19:57:45.881Z,25.28
2018-08-23T20:00:44.269Z,25.01
2018-08-23T20:03:14.264Z,24.67
2018-08-23T20:05:43.902Z,24.99
2018-08-23T20:08:16.022Z,24.86
2018-08-23T20:10:45.679Z,24.31
2018-08-23T20:13:15.345Z,24.10
2018-08-23T20:15:44.978Z,23.47
2018-08-23T20:18:14.679Z,23.29
2018-08-23T20:20:44.389Z,23.38
2018-08-23T20:23:14.038Z,23.38
2018-08-23T20:25:43.717Z,23.84
2018-08-23T20:28:17.734Z,23.65
2018-08-23T20:30:47.395Z,23.52
2018-08-23T20:33:17.566Z,22.88
2018-08-23T20:35:47.843Z,23.32
2018-08-23T20:38:17.493Z,23.91
2018-08-23T20:40:47.194Z,24.18
2018-08-23T20:43:23.452Z,24.35
2018-08-23T20:49:02.858Z,24.45
2018-08-23T20:51:32.445Z,24.35
2018-08-23T20:54:02.096Z,24.16
2018-08-23T20:56:43.363Z,23.99
2018-08-23T20:59:13.073Z,24.05
2018-08-23T21:01:42.663Z,23.92
2018-08-23T21:04:12.362Z,23.61
2018-08-23T21:06:41.935Z,23.37
2018-08-23T21:09:13.226Z,23.07
2018-08-23T21:11:42.826Z,22.98
2018-08-23T21:14:12.490Z,22.80
2018-08-23T21:16:42.147Z,22.81
2018-08-23T21:19:14.335Z,22.77
2018-08-23T21:21:44.038Z,22.40
2018-08-23T21:24:13.677Z,21.66
2018-08-23T21:26:49.329Z,22.20
2018-08-23T21:29:19.090Z,22.08
2018-08-23T21:31:48.769Z,22.61
2018-08-23T21:34:18.400Z,22.59
2018-08-23T21:36:48.075Z,22.46
2018-08-23T21:39:17.673Z,22.41
2018-08-23T21:41:47.320Z,22.07
2018-08-23T21:44:16.954Z,22.36
2018-08-23T21:46:49.780Z,22.67
2018-08-23T21:49:19.485Z,22.89
2018-08-23T21:51:49.111Z,22.79
2018-08-23T21:54:18.754Z,22.68
2018-08-23T21:56:49.835Z,22.57
2018-08-23T21:59:19.620Z,22.21
2018-08-23T22:01:51.313Z,22.47
2018-08-23T22:04:20.929Z,22.43
2018-08-23T22:06:50.527Z,22.23
2018-08-23T22:09:23.149Z,22.69
2018-08-23T22:11:52.831Z,22.77
2018-08-23T22:14:22.458Z,22.58
2018-08-23T22:16:52.139Z,21.81
2018-08-23T22:22:00.006Z,21.88
2018-08-23T22:24:29.669Z,22.32
2018-08-23T22:26:59.322Z,21.92
2018-08-23T22:29:38.043Z,21.52
2018-08-23T22:32:09.900Z,22.03
2018-08-23T22:34:39.649Z,22.18
2018-08-23T22:37:09.272Z,21.69
2018-08-23T22:39:38.975Z,21.82
2018-08-23T22:42:08.677Z,22.11
2018-08-23T22:44:38.395Z,22.20
2018-08-23T22:47:08.031Z,22.35
2018-08-23T22:49:37.653Z,21.90
2018-08-23T22:52:07.283Z,21.33
2018-08-23T22:54:37.069Z,21.50
2018-08-23T22:57:08.009Z,21.66
2018-08-23T22:59:38.289Z,22.05
2018-08-23T23:02:08.058Z,21.84
2018-08-23T23:04:37.674Z,21.78
2018-08-23T23:09:46.642Z,22.02
2018-08-23T23:12:16.237Z,22.17
2018-08-23T23:14:50.007Z,22.26
2018-08-23T23:17:19.687Z,22.08
2018-08-23T23:19:56.367Z,21.84
2018-08-23T23:22:26.269Z,21.87
2018-08-23T23:25:05.886Z,21.97
2018-08-23T23:27:36.534Z,22.04
2018-08-23T23:30:07.028Z,22.02
2018-08-23T23:32:36.784Z,22.22
2018-08-23T23:35:07.014Z,22.27
2018-08-23T23:44:09.803Z,21.98
2018-08-23T23:46:39.967Z,21.89
2018-08-23T23:49:22.411Z,21.93
2018-08-23T23:52:16.338Z,22.03
2018-08-23T23:54:50.228Z,22.17
2018-08-23T23:57:45.848Z,21.78
